sensor_id;sensor_type;location;lat;lon;timestamp;temperature;humidity
9824;DHT22;4951;50.778;7.196;2022-09-11T00:01:37;16.20;99.90
9824;DHT22;4951;50.778;7.196;2022-09-11T00:04:05;16.30;99.90
9824;DHT22;4951;50.778;7.196;2022-09-11T00:06:32;16.30;99.90
9824;DHT22;4951;50.778;7.196;2022-09-11T00:09:02;16.30;93.70
9824;DHT22;4951;50.778;7.196;2022-09-11T00:11:32;16.20;86.30
9824;DHT22;4951;50.778;7.196;2022-09-11T00:14:00;16.20;83.70
9824;DHT22;4951;50.778;7.196;2022-09-11T00:16:29;16.20;86.00
9824;DHT22;4951;50.778;7.196;2022-09-11T00:18:59;16.20;92.40
9824;DHT22;4951;50.778;7.196;2022-09-11T00:21:27;16.20;97.30
9824;DHT22;4951;50.778;7.196;2022-09-11T00:23:55;16.30;99.90
9824;DHT22;4951;50.778;7.196;2022-09-11T00:26:22;16.30;99.90
9824;DHT22;4951;50.778;7.196;2022-09-11T00:28:50;16.30;99.90
9824;DHT22;4951;50.778;7.196;2022-09-11T00:31:21;16.30;99.90
9824;DHT22;4951;50.778;7.196;2022-09-11T00:33:48;16.40;99.90
9824;DHT22;4951;50.778;7.196;2022-09-11T00:36:18;16.40;99.10
9824;DHT22;4951;50.778;7.196;2022-09-11T00:38:46;16.40;96.10
9824;DHT22;4951;50.778;7.196;2022-09-11T00:41:16;16.40;93.70
9824;DHT22;4951;50.778;7.196;2022-09-11T00:43:52;16.40;92.30
9824;DHT22;4951;50.778;7.196;2022-09-11T00:46:23;16.50;91.40
9824;DHT22;4951;50.778;7.196;2022-09-11T00:48:51;16.50;89.00
9824;DHT22;4951;50.778;7.196;2022-09-11T00:51:25;16.50;83.50
9824;DHT22;4951;50.778;7.196;2022-09-11T00:53:55;16.50;78.80
9824;DHT22;4951;50.778;7.196;2022-09-11T00:56:27;16.50;72.40
9824;DHT22;4951;50.778;7.196;2022-09-11T00:58:56;16.50;70.90
9824;DHT22;4951;50.778;7.196;2022-09-11T01:01:25;16.50;64.60
9824;DHT22;4951;50.778;7.196;2022-09-11T01:03:52;16.50;63.80
9824;DHT22;4951;50.778;7.196;2022-09-11T01:06:22;16.50;67.50
9824;DHT22;4951;50.778;7.196;2022-09-11T01:08:50;16.50;70.20
9824;DHT22;4951;50.778;7.196;2022-09-11T01:11:29;16.50;71.50
9824;DHT22;4951;50.778;7.196;2022-09-11T01:14:06;16.60;72.80
9824;DHT22;4951;50.778;7.196;2022-09-11T01:16:40;16.60;79.20
9824;DHT22;4951;50.778;7.196;2022-09-11T01:19:22;16.60;79.80
9824;DHT22;4951;50.778;7.196;2022-09-11T01:22:08;16.60;77.20
9824;DHT22;4951;50.778;7.196;2022-09-11T01:24:58;16.60;72.50
9824;DHT22;4951;50.778;7.196;2022-09-11T01:27:39;16.60;66.30
9824;DHT22;4951;50.778;7.196;2022-09-11T01:30:09;16.60;64.00
9824;DHT22;4951;50.778;7.196;2022-09-11T01:32:51;16.60;58.50
9824;DHT22;4951;50.778;7.196;2022-09-11T01:35:23;16.60;57.70
9824;DHT22;4951;50.778;7.196;2022-09-11T01:37:56;16.60;56.90
9824;DHT22;4951;50.778;7.196;2022-09-11T01:40:28;16.60;55.20
9824;DHT22;4951;50.778;7.196;2022-09-11T01:43:04;16.60;54.20
9824;DHT22;4951;50.778;7.196;2022-09-11T01:45:33;16.60;55.90
9824;DHT22;4951;50.778;7.196;2022-09-11T01:48:02;16.60;55.20
9824;DHT22;4951;50.778;7.196;2022-09-11T01:50:31;16.60;53.20
9824;DHT22;4951;50.778;7.196;2022-09-11T01:53:01;16.60;53.90
9824;DHT22;4951;50.778;7.196;2022-09-11T01:55:33;16.60;56.10
9824;DHT22;4951;50.778;7.196;2022-09-11T01:58:06;16.60;54.60
9824;DHT22;4951;50.778;7.196;2022-09-11T02:00:39;16.60;55.30
9824;DHT22;4951;50.778;7.196;2022-09-11T02:03:12;16.60;55.20
9824;DHT22;4951;50.778;7.196;2022-09-11T02:05:45;16.60;55.90
9824;DHT22;4951;50.778;7.196;2022-09-11T02:08:22;16.60;54.40
9824;DHT22;4951;50.778;7.196;2022-09-11T02:10:55;16.60;57.60
9824;DHT22;4951;50.778;7.196;2022-09-11T02:13:29;16.50;60.00
9824;DHT22;4951;50.778;7.196;2022-09-11T02:16:06;16.50;56.80
9824;DHT22;4951;50.778;7.196;2022-09-11T02:18:42;16.50;56.70
9824;DHT22;4951;50.778;7.196;2022-09-11T02:21:11;16.50;53.70
9824;DHT22;4951;50.778;7.196;2022-09-11T02:23:38;16.50;54.70
9824;DHT22;4951;50.778;7.196;2022-09-11T02:26:07;16.50;56.90
9824;DHT22;4951;50.778;7.196;2022-09-11T02:28:36;16.50;62.50
9824;DHT22;4951;50.778;7.196;2022-09-11T02:31:05;16.50;67.50
9824;DHT22;4951;50.778;7.196;2022-09-11T02:33:34;16.50;67.80
9824;DHT22;4951;50.778;7.196;2022-09-11T02:36:16;16.50;67.80
9824;DHT22;4951;50.778;7.196;2022-09-11T02:38:58;16.50;72.80
9824;DHT22;4951;50.778;7.196;2022-09-11T02:41:34;16.50;75.20
9824;DHT22;4951;50.778;7.196;2022-09-11T02:44:13;16.50;78.20
9824;DHT22;4951;50.778;7.196;2022-09-11T02:46:54;16.50;79.80
9824;DHT22;4951;50.778;7.196;2022-09-11T02:49:31;16.50;84.00
9824;DHT22;4951;50.778;7.196;2022-09-11T02:52:09;16.50;84.00
9824;DHT22;4951;50.778;7.196;2022-09-11T02:54:45;16.50;82.10
9824;DHT22;4951;50.778;7.196;2022-09-11T02:57:20;16.50;84.80
9824;DHT22;4951;50.778;7.196;2022-09-11T02:59:56;16.50;80.50
9824;DHT22;4951;50.778;7.196;2022-09-11T03:02:26;16.50;78.40
9824;DHT22;4951;50.778;7.196;2022-09-11T03:05:13;16.50;82.00
9824;DHT22;4951;50.778;7.196;2022-09-11T03:08:00;16.60;82.50
9824;DHT22;4951;50.778;7.196;2022-09-11T03:10:45;16.50;81.70
9824;DHT22;4951;50.778;7.196;2022-09-11T03:13:35;16.50;79.50
9824;DHT22;4951;50.778;7.196;2022-09-11T03:16:24;16.50;88.80
9824;DHT22;4951;50.778;7.196;2022-09-11T03:18:52;16.50;92.80
9824;DHT22;4951;50.778;7.196;2022-09-11T03:21:39;16.50;93.40
9824;DHT22;4951;50.778;7.196;2022-09-11T03:24:08;16.50;96.90
9824;DHT22;4951;50.778;7.196;2022-09-11T03:26:36;16.50;96.60
9824;DHT22;4951;50.778;7.196;2022-09-11T03:29:03;16.50;96.70
9824;DHT22;4951;50.778;7.196;2022-09-11T03:31:34;16.50;96.60
9824;DHT22;4951;50.778;7.196;2022-09-11T03:34:04;16.50;96.70
9824;DHT22;4951;50.778;7.196;2022-09-11T03:36:32;16.60;98.30
9824;DHT22;4951;50.778;7.196;2022-09-11T03:39:00;16.50;99.90
9824;DHT22;4951;50.778;7.196;2022-09-11T03:41:27;16.50;99.90
9824;DHT22;4951;50.778;7.196;2022-09-11T03:43:54;16.50;99.90
9824;DHT22;4951;50.778;7.196;2022-09-11T03:46:21;16.50;99.90
9824;DHT22;4951;50.778;7.196;2022-09-11T03:48:51;16.50;99.90
9824;DHT22;4951;50.778;7.196;2022-09-11T03:51:19;16.50;99.90
9824;DHT22;4951;50.778;7.196;2022-09-11T03:53:46;16.50;99.90
9824;DHT22;4951;50.778;7.196;2022-09-11T03:56:14;16.50;99.90
9824;DHT22;4951;50.778;7.196;2022-09-11T03:58:47;16.50;99.90
9824;DHT22;4951;50.778;7.196;2022-09-11T04:01:15;16.50;99.90
9824;DHT22;4951;50.778;7.196;2022-09-11T04:03:45;16.50;99.90
9824;DHT22;4951;50.778;7.196;2022-09-11T04:06:21;16.50;99.90
9824;DHT22;4951;50.778;7.196;2022-09-11T04:08:48;16.50;99.90
9824;DHT22;4951;50.778;7.196;2022-09-11T04:11:16;16.50;99.90
9824;DHT22;4951;50.778;7.196;2022-09-11T04:13:44;16.50;99.90
9824;DHT22;4951;50.778;7.196;2022-09-11T04:16:15;16.50;98.90
9824;DHT22;4951;50.778;7.196;2022-09-11T04:18:46;16.50;99.00
9824;DHT22;4951;50.778;7.196;2022-09-11T04:21:16;16.50;99.80
9824;DHT22;4951;50.778;7.196;2022-09-11T04:23:51;16.40;99.50
9824;DHT22;4951;50.778;7.196;2022-09-11T04:26:21;16.50;98.30
9824;DHT22;4951;50.778;7.196;2022-09-11T04:28:52;16.50;96.00
9824;DHT22;4951;50.778;7.196;2022-09-11T04:31:19;16.40;95.10
9824;DHT22;4951;50.778;7.196;2022-09-11T04:33:47;16.40;93.90
9824;DHT22;4951;50.778;7.196;2022-09-11T04:36:17;16.40;95.40
9824;DHT22;4951;50.778;7.196;2022-09-11T04:38:46;16.40;94.60
9824;DHT22;4951;50.778;7.196;2022-09-11T04:41:15;16.40;96.40
9824;DHT22;4951;50.778;7.196;2022-09-11T04:43:44;16.40;99.50
9824;DHT22;4951;50.778;7.196;2022-09-11T04:46:15;16.40;99.90
9824;DHT22;4951;50.778;7.196;2022-09-11T04:48:44;16.40;99.90
9824;DHT22;4951;50.778;7.196;2022-09-11T04:51:19;16.40;99.90
9824;DHT22;4951;50.778;7.196;2022-09-11T04:54:06;16.40;99.90
9824;DHT22;4951;50.778;7.196;2022-09-11T04:56:38;16.40;99.90
9824;DHT22;4951;50.778;7.196;2022-09-11T04:59:12;16.40;99.90
9824;DHT22;4951;50.778;7.196;2022-09-11T05:01:44;16.40;99.90
9824;DHT22;4951;50.778;7.196;2022-09-11T05:04:15;16.40;99.90
9824;DHT22;4951;50.778;7.196;2022-09-11T05:06:46;16.40;99.90
9824;DHT22;4951;50.778;7.196;2022-09-11T05:09:34;16.40;99.90
9824;DHT22;4951;50.778;7.196;2022-09-11T05:12:05;16.40;99.90
9824;DHT22;4951;50.778;7.196;2022-09-11T05:14:34;16.40;98.90
9824;DHT22;4951;50.778;7.196;2022-09-11T05:17:03;16.40;97.50
9824;DHT22;4951;50.778;7.196;2022-09-11T05:19:33;16.40;94.20
9824;DHT22;4951;50.778;7.196;2022-09-11T05:22:01;16.40;94.70
9824;DHT22;4951;50.778;7.196;2022-09-11T05:24:31;16.40;92.30
9824;DHT22;4951;50.778;7.196;2022-09-11T05:26:58;16.40;90.60
9824;DHT22;4951;50.778;7.196;2022-09-11T05:29:28;16.30;90.80
9824;DHT22;4951;50.778;7.196;2022-09-11T05:31:59;16.30;90.90
9824;DHT22;4951;50.778;7.196;2022-09-11T05:34:28;16.30;87.10
9824;DHT22;4951;50.778;7.196;2022-09-11T05:36:57;16.30;88.10
9824;DHT22;4951;50.778;7.196;2022-09-11T05:39:29;16.30;90.30
9824;DHT22;4951;50.778;7.196;2022-09-11T05:41:59;16.30;91.70
9824;DHT22;4951;50.778;7.196;2022-09-11T05:44:31;16.30;93.50
9824;DHT22;4951;50.778;7.196;2022-09-11T05:46:59;16.30;94.40
9824;DHT22;4951;50.778;7.196;2022-09-11T05:49:26;16.30;94.40
9824;DHT22;4951;50.778;7.196;2022-09-11T05:51:53;16.30;94.60
9824;DHT22;4951;50.778;7.196;2022-09-11T05:54:20;16.30;94.00
9824;DHT22;4951;50.778;7.196;2022-09-11T05:56:47;16.30;93.50
9824;DHT22;4951;50.778;7.196;2022-09-11T05:59:21;16.30;93.60
9824;DHT22;4951;50.778;7.196;2022-09-11T06:01:51;16.30;90.70
9824;DHT22;4951;50.778;7.196;2022-09-11T06:04:30;16.40;90.70
9824;DHT22;4951;50.778;7.196;2022-09-11T06:06:58;16.40;90.90
9824;DHT22;4951;50.778;7.196;2022-09-11T06:09:27;16.30;90.10
9824;DHT22;4951;50.778;7.196;2022-09-11T06:11:54;16.30;91.40
9824;DHT22;4951;50.778;7.196;2022-09-11T06:14:21;16.40;92.00
9824;DHT22;4951;50.778;7.196;2022-09-11T06:16:51;16.40;90.10
9824;DHT22;4951;50.778;7.196;2022-09-11T06:19:18;16.40;86.10
9824;DHT22;4951;50.778;7.196;2022-09-11T06:21:46;16.40;82.80
9824;DHT22;4951;50.778;7.196;2022-09-11T06:24:27;16.40;79.50
9824;DHT22;4951;50.778;7.196;2022-09-11T06:26:55;16.40;79.10
9824;DHT22;4951;50.778;7.196;2022-09-11T06:29:24;16.40;79.90
9824;DHT22;4951;50.778;7.196;2022-09-11T06:31:54;16.40;75.80
9824;DHT22;4951;50.778;7.196;2022-09-11T06:34:25;16.40;70.20
9824;DHT22;4951;50.778;7.196;2022-09-11T06:36:52;16.40;63.90
9824;DHT22;4951;50.778;7.196;2022-09-11T06:39:21;16.40;63.30
9824;DHT22;4951;50.778;7.196;2022-09-11T06:41:49;16.40;63.50
9824;DHT22;4951;50.778;7.196;2022-09-11T06:44:26;16.40;68.90
9824;DHT22;4951;50.778;7.196;2022-09-11T06:46:58;16.40;68.00
9824;DHT22;4951;50.778;7.196;2022-09-11T06:49:26;16.40;71.90
9824;DHT22;4951;50.778;7.196;2022-09-11T06:52:14;16.40;63.00
9824;DHT22;4951;50.778;7.196;2022-09-11T06:54:48;16.40;63.80
9824;DHT22;4951;50.778;7.196;2022-09-11T06:57:16;16.40;76.20
9824;DHT22;4951;50.778;7.196;2022-09-11T06:59:44;16.40;84.60
9824;DHT22;4951;50.778;7.196;2022-09-11T07:02:13;16.50;95.60
9824;DHT22;4951;50.778;7.196;2022-09-11T07:04:40;16.50;99.50
9824;DHT22;4951;50.778;7.196;2022-09-11T07:07:08;16.60;97.50
9824;DHT22;4951;50.778;7.196;2022-09-11T07:09:36;16.70;87.00
9824;DHT22;4951;50.778;7.196;2022-09-11T07:12:04;16.60;73.00
9824;DHT22;4951;50.778;7.196;2022-09-11T07:14:31;16.70;80.60
9824;DHT22;4951;50.778;7.196;2022-09-11T07:17:09;16.70;73.10
9824;DHT22;4951;50.778;7.196;2022-09-11T07:19:39;16.80;67.40
9824;DHT22;4951;50.778;7.196;2022-09-11T07:22:09;16.80;67.40
9824;DHT22;4951;50.778;7.196;2022-09-11T07:24:36;16.80;55.20
9824;DHT22;4951;50.778;7.196;2022-09-11T07:27:04;16.80;52.90
9824;DHT22;4951;50.778;7.196;2022-09-11T07:29:34;16.80;35.70
9824;DHT22;4951;50.778;7.196;2022-09-11T07:32:01;16.80;31.10
9824;DHT22;4951;50.778;7.196;2022-09-11T07:34:28;16.80;28.60
9824;DHT22;4951;50.778;7.196;2022-09-11T07:37:01;16.80;30.60
9824;DHT22;4951;50.778;7.196;2022-09-11T07:39:28;16.80;29.50
9824;DHT22;4951;50.778;7.196;2022-09-11T07:42:00;16.80;28.70
9824;DHT22;4951;50.778;7.196;2022-09-11T07:44:31;16.90;32.10
9824;DHT22;4951;50.778;7.196;2022-09-11T07:46:58;17.00;30.20
9824;DHT22;4951;50.778;7.196;2022-09-11T07:49:28;17.00;25.70
9824;DHT22;4951;50.778;7.196;2022-09-11T07:51:56;17.10;14.40
9824;DHT22;4951;50.778;7.196;2022-09-11T07:54:34;17.10;12.50
9824;DHT22;4951;50.778;7.196;2022-09-11T07:57:02;17.20;14.90
9824;DHT22;4951;50.778;7.196;2022-09-11T07:59:29;17.20;4.70
9824;DHT22;4951;50.778;7.196;2022-09-11T08:02:00;17.30;1.00
9824;DHT22;4951;50.778;7.196;2022-09-11T08:04:27;17.30;1.00
9824;DHT22;4951;50.778;7.196;2022-09-11T08:06:55;17.30;1.00
9824;DHT22;4951;50.778;7.196;2022-09-11T08:09:28;17.30;1.00
9824;DHT22;4951;50.778;7.196;2022-09-11T08:12:00;17.30;1.00
9824;DHT22;4951;50.778;7.196;2022-09-11T08:14:30;17.30;1.00
9824;DHT22;4951;50.778;7.196;2022-09-11T08:17:05;17.30;1.00
9824;DHT22;4951;50.778;7.196;2022-09-11T08:19:32;17.30;1.00
9824;DHT22;4951;50.778;7.196;2022-09-11T08:22:01;17.30;1.00
9824;DHT22;4951;50.778;7.196;2022-09-11T08:24:33;17.30;1.00
9824;DHT22;4951;50.778;7.196;2022-09-11T08:27:04;17.40;1.00
9824;DHT22;4951;50.778;7.196;2022-09-11T08:29:35;17.50;1.00
9824;DHT22;4951;50.778;7.196;2022-09-11T08:32:03;17.60;1.00
9824;DHT22;4951;50.778;7.196;2022-09-11T08:34:32;17.70;1.00
9824;DHT22;4951;50.778;7.196;2022-09-11T08:37:00;17.70;1.00
9824;DHT22;4951;50.778;7.196;2022-09-11T08:39:31;17.80;1.00
9824;DHT22;4951;50.778;7.196;2022-09-11T08:42:05;17.80;1.00
9824;DHT22;4951;50.778;7.196;2022-09-11T08:44:40;17.70;1.00
9824;DHT22;4951;50.778;7.196;2022-09-11T08:47:19;17.60;1.00
9824;DHT22;4951;50.778;7.196;2022-09-11T08:49:54;17.50;1.00
9824;DHT22;4951;50.778;7.196;2022-09-11T08:52:24;17.40;1.00
9824;DHT22;4951;50.778;7.196;2022-09-11T08:54:55;17.30;1.00
9824;DHT22;4951;50.778;7.196;2022-09-11T08:57:33;17.20;1.00
9824;DHT22;4951;50.778;7.196;2022-09-11T09:00:13;17.10;1.00
9824;DHT22;4951;50.778;7.196;2022-09-11T09:03:13;17.10;1.00
9824;DHT22;4951;50.778;7.196;2022-09-11T09:05:50;17.10;1.00
9824;DHT22;4951;50.778;7.196;2022-09-11T09:08:35;17.00;1.00
9824;DHT22;4951;50.778;7.196;2022-09-11T09:11:14;17.10;1.00
9824;DHT22;4951;50.778;7.196;2022-09-11T09:14:10;17.20;1.00
9824;DHT22;4951;50.778;7.196;2022-09-11T09:16:47;17.30;1.00
9824;DHT22;4951;50.778;7.196;2022-09-11T09:19:22;17.50;1.00
9824;DHT22;4951;50.778;7.196;2022-09-11T09:22:00;17.60;1.00
9824;DHT22;4951;50.778;7.196;2022-09-11T09:24:35;17.80;1.00
9824;DHT22;4951;50.778;7.196;2022-09-11T09:27:07;17.90;1.00
9824;DHT22;4951;50.778;7.196;2022-09-11T09:29:38;18.00;1.00
9824;DHT22;4951;50.778;7.196;2022-09-11T09:32:17;18.00;1.00
9824;DHT22;4951;50.778;7.196;2022-09-11T09:34:47;18.10;1.00
9824;DHT22;4951;50.778;7.196;2022-09-11T09:37:19;18.10;1.00
9824;DHT22;4951;50.778;7.196;2022-09-11T09:39:47;18.20;1.00
9824;DHT22;4951;50.778;7.196;2022-09-11T09:42:29;18.30;1.00
9824;DHT22;4951;50.778;7.196;2022-09-11T09:45:17;18.50;1.00
9824;DHT22;4951;50.778;7.196;2022-09-11T09:47:49;18.70;1.00
9824;DHT22;4951;50.778;7.196;2022-09-11T09:50:19;18.90;1.00
9824;DHT22;4951;50.778;7.196;2022-09-11T09:52:48;19.00;1.00
9824;DHT22;4951;50.778;7.196;2022-09-11T09:55:17;19.00;1.00
9824;DHT22;4951;50.778;7.196;2022-09-11T09:57:44;19.10;1.00
9824;DHT22;4951;50.778;7.196;2022-09-11T10:00:17;19.10;1.00
9824;DHT22;4951;50.778;7.196;2022-09-11T10:02:46;19.10;1.00
9824;DHT22;4951;50.778;7.196;2022-09-11T10:05:25;19.10;1.00
9824;DHT22;4951;50.778;7.196;2022-09-11T10:07:54;19.10;1.00
9824;DHT22;4951;50.778;7.196;2022-09-11T10:10:28;19.10;1.00
9824;DHT22;4951;50.778;7.196;2022-09-11T10:12:57;19.20;1.00
9824;DHT22;4951;50.778;7.196;2022-09-11T10:15:27;19.30;1.00
9824;DHT22;4951;50.778;7.196;2022-09-11T10:21:19;19.50;1.00
9824;DHT22;4951;50.778;7.196;2022-09-11T10:23:49;19.60;1.00
9824;DHT22;4951;50.778;7.196;2022-09-11T10:26:20;19.70;1.00
9824;DHT22;4951;50.778;7.196;2022-09-11T10:28:51;19.80;1.00
9824;DHT22;4951;50.778;7.196;2022-09-11T10:31:20;19.80;1.00
9824;DHT22;4951;50.778;7.196;2022-09-11T10:33:52;19.80;1.00
9824;DHT22;4951;50.778;7.196;2022-09-11T10:36:23;19.80;1.00
9824;DHT22;4951;50.778;7.196;2022-09-11T10:38:51;19.90;1.00
9824;DHT22;4951;50.778;7.196;2022-09-11T10:41:20;19.80;1.00
9824;DHT22;4951;50.778;7.196;2022-09-11T10:43:52;19.80;1.00
9824;DHT22;4951;50.778;7.196;2022-09-11T10:46:28;19.70;1.00
9824;DHT22;4951;50.778;7.196;2022-09-11T10:48:58;19.80;1.00
9824;DHT22;4951;50.778;7.196;2022-09-11T10:51:27;19.80;1.00
9824;DHT22;4951;50.778;7.196;2022-09-11T10:54:03;19.80;1.00
9824;DHT22;4951;50.778;7.196;2022-09-11T10:56:34;19.90;1.00
9824;DHT22;4951;50.778;7.196;2022-09-11T10:59:10;19.90;1.00
9824;DHT22;4951;50.778;7.196;2022-09-11T11:01:40;19.90;1.00
9824;DHT22;4951;50.778;7.196;2022-09-11T11:04:09;19.90;1.00
9824;DHT22;4951;50.778;7.196;2022-09-11T11:06:47;19.90;1.00
9824;DHT22;4951;50.778;7.196;2022-09-11T11:09:30;20.00;1.00
9824;DHT22;4951;50.778;7.196;2022-09-11T11:12:10;20.00;1.00
9824;DHT22;4951;50.778;7.196;2022-09-11T11:15:00;20.00;1.00
9824;DHT22;4951;50.778;7.196;2022-09-11T11:17:36;20.00;1.00
9824;DHT22;4951;50.778;7.196;2022-09-11T11:20:16;20.10;1.00
9824;DHT22;4951;50.778;7.196;2022-09-11T11:23:27;20.20;99.90
9824;DHT22;4951;50.778;7.196;2022-09-11T11:29:11;20.30;99.90
9824;DHT22;4951;50.778;7.196;2022-09-11T11:31:54;20.50;99.90
9824;DHT22;4951;50.778;7.196;2022-09-11T11:34:35;20.60;99.90
9824;DHT22;4951;50.778;7.196;2022-09-11T11:37:06;20.60;99.90
9824;DHT22;4951;50.778;7.196;2022-09-11T11:39:42;20.70;99.90
9824;DHT22;4951;50.778;7.196;2022-09-11T11:42:18;20.80;99.90
9824;DHT22;4951;50.778;7.196;2022-09-11T11:45:05;21.00;99.90
9824;DHT22;4951;50.778;7.196;2022-09-11T11:47:39;21.00;99.90
9824;DHT22;4951;50.778;7.196;2022-09-11T11:50:20;21.20;99.90
9824;DHT22;4951;50.778;7.196;2022-09-11T11:52:56;21.10;99.90
9824;DHT22;4951;50.778;7.196;2022-09-11T11:55:26;21.10;28.00
9824;DHT22;4951;50.778;7.196;2022-09-11T11:58:02;21.00;44.50
9824;DHT22;4951;50.778;7.196;2022-09-11T12:00:38;20.90;5.80
9824;DHT22;4951;50.778;7.196;2022-09-11T12:03:11;20.90;1.00
9824;DHT22;4951;50.778;7.196;2022-09-11T12:05:41;20.80;1.00
9824;DHT22;4951;50.778;7.196;2022-09-11T12:08:11;20.80;1.00
9824;DHT22;4951;50.778;7.196;2022-09-11T12:10:41;20.90;1.00
9824;DHT22;4951;50.778;7.196;2022-09-11T12:13:12;21.00;1.00
9824;DHT22;4951;50.778;7.196;2022-09-11T12:16:01;21.10;1.00
9824;DHT22;4951;50.778;7.196;2022-09-11T12:18:30;21.20;1.00
9824;DHT22;4951;50.778;7.196;2022-09-11T12:21:38;21.30;1.00
9824;DHT22;4951;50.778;7.196;2022-09-11T12:24:14;21.40;99.90
9824;DHT22;4951;50.778;7.196;2022-09-11T12:26:42;21.50;1.00
9824;DHT22;4951;50.778;7.196;2022-09-11T12:32:40;21.50;99.90
9824;DHT22;4951;50.778;7.196;2022-09-11T12:35:26;21.40;99.90
9824;DHT22;4951;50.778;7.196;2022-09-11T12:38:08;21.50;99.90
9824;DHT22;4951;50.778;7.196;2022-09-11T12:40:44;21.60;99.90
9824;DHT22;4951;50.778;7.196;2022-09-11T12:49:20;22.10;1.00
9824;DHT22;4951;50.778;7.196;2022-09-11T12:51:51;22.30;1.00
9824;DHT22;4951;50.778;7.196;2022-09-11T12:54:23;22.60;99.90
9824;DHT22;4951;50.778;7.196;2022-09-11T12:56:58;22.70;62.50
9824;DHT22;4951;50.778;7.196;2022-09-11T12:59:30;22.90;1.00
9824;DHT22;4951;50.778;7.196;2022-09-11T13:01:59;23.10;1.00
9824;DHT22;4951;50.778;7.196;2022-09-11T13:04:28;23.30;1.00
9824;DHT22;4951;50.778;7.196;2022-09-11T13:06:58;23.30;1.00
9824;DHT22;4951;50.778;7.196;2022-09-11T13:09:31;23.10;1.00
9824;DHT22;4951;50.778;7.196;2022-09-11T13:15:01;23.40;1.00
9824;DHT22;4951;50.778;7.196;2022-09-11T13:17:31;23.60;1.00
9824;DHT22;4951;50.778;7.196;2022-09-11T13:20:19;23.40;99.90
9824;DHT22;4951;50.778;7.196;2022-09-11T13:22:48;23.30;1.00
9824;DHT22;4951;50.778;7.196;2022-09-11T13:25:18;23.50;1.00
9824;DHT22;4951;50.778;7.196;2022-09-11T13:27:47;23.80;1.00
9824;DHT22;4951;50.778;7.196;2022-09-11T13:30:18;24.00;1.00
9824;DHT22;4951;50.778;7.196;2022-09-11T13:32:47;24.20;99.90
9824;DHT22;4951;50.778;7.196;2022-09-11T13:35:19;24.60;99.90
9824;DHT22;4951;50.778;7.196;2022-09-11T13:37:52;25.10;1.00
9824;DHT22;4951;50.778;7.196;2022-09-11T13:40:27;25.60;1.00
9824;DHT22;4951;50.778;7.196;2022-09-11T13:42:56;26.10;1.00
9824;DHT22;4951;50.778;7.196;2022-09-11T13:45:24;26.40;75.40
9824;DHT22;4951;50.778;7.196;2022-09-11T13:47:52;26.60;1.00
9824;DHT22;4951;50.778;7.196;2022-09-11T13:50:20;26.90;1.00
9824;DHT22;4951;50.778;7.196;2022-09-11T13:52:50;27.00;99.90
9824;DHT22;4951;50.778;7.196;2022-09-11T13:55:21;27.10;1.00
9824;DHT22;4951;50.778;7.196;2022-09-11T13:57:54;27.30;99.90
9824;DHT22;4951;50.778;7.196;2022-09-11T14:00:37;27.50;99.90
9824;DHT22;4951;50.778;7.196;2022-09-11T14:03:15;27.50;99.90
9824;DHT22;4951;50.778;7.196;2022-09-11T14:05:51;27.10;99.90
9824;DHT22;4951;50.778;7.196;2022-09-11T14:08:28;26.40;99.90
9824;DHT22;4951;50.778;7.196;2022-09-11T14:11:00;25.80;1.00
9824;DHT22;4951;50.778;7.196;2022-09-11T14:13:34;25.60;99.90
9824;DHT22;4951;50.778;7.196;2022-09-11T14:16:04;25.80;99.90
9824;DHT22;4951;50.778;7.196;2022-09-11T14:18:39;26.30;99.90
9824;DHT22;4951;50.778;7.196;2022-09-11T14:21:12;26.70;1.00
9824;DHT22;4951;50.778;7.196;2022-09-11T14:23:42;27.10;1.00
9824;DHT22;4951;50.778;7.196;2022-09-11T14:26:15;27.60;1.00
9824;DHT22;4951;50.778;7.196;2022-09-11T14:28:58;27.60;99.90
9824;DHT22;4951;50.778;7.196;2022-09-11T14:31:28;27.00;1.00
9824;DHT22;4951;50.778;7.196;2022-09-11T14:34:12;26.40;1.00
9824;DHT22;4951;50.778;7.196;2022-09-11T14:36:43;26.10;99.90
9824;DHT22;4951;50.778;7.196;2022-09-11T14:39:14;26.20;99.90
9824;DHT22;4951;50.778;7.196;2022-09-11T14:41:45;26.60;99.90
9824;DHT22;4951;50.778;7.196;2022-09-11T14:44:15;27.00;99.90
9824;DHT22;4951;50.778;7.196;2022-09-11T14:46:42;27.30;97.40
9824;DHT22;4951;50.778;7.196;2022-09-11T14:49:10;27.60;99.90
9824;DHT22;4951;50.778;7.196;2022-09-11T14:51:41;27.90;99.90
9824;DHT22;4951;50.778;7.196;2022-09-11T14:54:13;28.00;99.90
9824;DHT22;4951;50.778;7.196;2022-09-11T14:56:41;28.00;99.90
9824;DHT22;4951;50.778;7.196;2022-09-11T14:59:09;28.10;99.90
9824;DHT22;4951;50.778;7.196;2022-09-11T15:01:38;28.10;1.00
9824;DHT22;4951;50.778;7.196;2022-09-11T15:04:10;28.20;17.50
9824;DHT22;4951;50.778;7.196;2022-09-11T15:06:41;28.30;1.00
9824;DHT22;4951;50.778;7.196;2022-09-11T15:09:11;28.00;1.00
9824;DHT22;4951;50.778;7.196;2022-09-11T15:11:38;27.40;1.00
9824;DHT22;4951;50.778;7.196;2022-09-11T15:14:06;26.80;1.00
9824;DHT22;4951;50.778;7.196;2022-09-11T15:16:34;26.70;99.90
9824;DHT22;4951;50.778;7.196;2022-09-11T15:19:02;26.90;99.90
9824;DHT22;4951;50.778;7.196;2022-09-11T15:21:31;27.00;3.20
9824;DHT22;4951;50.778;7.196;2022-09-11T15:23:59;27.00;1.00
9824;DHT22;4951;50.778;7.196;2022-09-11T15:26:26;26.70;1.00
9824;DHT22;4951;50.778;7.196;2022-09-11T15:28:53;26.20;1.00
9824;DHT22;4951;50.778;7.196;2022-09-11T15:31:20;25.40;1.00
9824;DHT22;4951;50.778;7.196;2022-09-11T15:33:49;25.00;99.90
9824;DHT22;4951;50.778;7.196;2022-09-11T15:36:17;25.20;1.00
9824;DHT22;4951;50.778;7.196;2022-09-11T15:38:50;25.10;1.00
9824;DHT22;4951;50.778;7.196;2022-09-11T15:41:18;25.10;1.00
9824;DHT22;4951;50.778;7.196;2022-09-11T15:43:47;24.80;1.00
9824;DHT22;4951;50.778;7.196;2022-09-11T15:46:17;24.40;1.00
9824;DHT22;4951;50.778;7.196;2022-09-11T15:48:44;24.00;1.00
9824;DHT22;4951;50.778;7.196;2022-09-11T15:51:14;23.70;58.80
9824;DHT22;4951;50.778;7.196;2022-09-11T15:53:43;23.40;99.90
9824;DHT22;4951;50.778;7.196;2022-09-11T15:56:12;23.20;99.90
9824;DHT22;4951;50.778;7.196;2022-09-11T15:58:44;22.90;99.90
9824;DHT22;4951;50.778;7.196;2022-09-11T16:01:17;22.70;99.90
9824;DHT22;4951;50.778;7.196;2022-09-11T16:03:48;22.40;99.90
9824;DHT22;4951;50.778;7.196;2022-09-11T16:06:16;22.30;99.90
9824;DHT22;4951;50.778;7.196;2022-09-11T16:08:45;22.10;99.90
9824;DHT22;4951;50.778;7.196;2022-09-11T16:11:12;22.10;99.90
9824;DHT22;4951;50.778;7.196;2022-09-11T16:13:40;22.00;99.90
9824;DHT22;4951;50.778;7.196;2022-09-11T16:16:08;21.90;99.90
9824;DHT22;4951;50.778;7.196;2022-09-11T16:18:36;21.80;99.90
9824;DHT22;4951;50.778;7.196;2022-09-11T16:21:04;21.70;99.90
9824;DHT22;4951;50.778;7.196;2022-09-11T16:23:33;21.60;99.90
9824;DHT22;4951;50.778;7.196;2022-09-11T16:26:04;21.50;76.70
9824;DHT22;4951;50.778;7.196;2022-09-11T16:28:32;21.40;74.20
9824;DHT22;4951;50.778;7.196;2022-09-11T16:30:59;21.40;69.20
9824;DHT22;4951;50.778;7.196;2022-09-11T16:33:27;21.40;90.00
9824;DHT22;4951;50.778;7.196;2022-09-11T16:35:56;21.30;97.90
9824;DHT22;4951;50.778;7.196;2022-09-11T16:38:24;21.20;88.40
9824;DHT22;4951;50.778;7.196;2022-09-11T16:40:59;21.20;86.30
9824;DHT22;4951;50.778;7.196;2022-09-11T16:43:28;21.10;99.90
9824;DHT22;4951;50.778;7.196;2022-09-11T16:45:56;21.00;99.90
9824;DHT22;4951;50.778;7.196;2022-09-11T16:48:24;21.00;99.90
9824;DHT22;4951;50.778;7.196;2022-09-11T16:50:51;20.90;99.90
9824;DHT22;4951;50.778;7.196;2022-09-11T16:53:19;20.90;99.90
9824;DHT22;4951;50.778;7.196;2022-09-11T16:55:46;20.80;99.90
9824;DHT22;4951;50.778;7.196;2022-09-11T16:58:13;20.80;99.90